| time (UTC) | temp F | wind direction | speed MPH | gust MPH | rain 1hr in | rain 24hr in | rain mn in | humidity % | barometer mb |
| 20260509053322 | 51 | 135 | 1.0 | 1.0 | 0.00 | 0.00 | 0.00 | 41 | 1003.9 |
| 20260509052821 | 51 | 150 | 0.0 | 0.0 | 0.00 | 0.00 | 0.00 | 42 | 1004.0 |
| 20260509052318 | 51 | 133 | 0.0 | 0.0 | 0.00 | 0.00 | 0.00 | 42 | 1003.7 |
| 20260509051815 | 51 | 134 | 3.0 | 5.0 | 0.00 | 0.00 | 0.00 | 40 | 1004.2 |
| 20260509051313 | 51 | 144 | 1.0 | 1.0 | 0.00 | 0.00 | 0.00 | 42 | 1003.9 |
| 20260509050809 | 51 | 135 | 0.0 | 0.0 | 0.00 | 0.00 | 0.00 | 41 | 1004.0 |
| 20260509050306 | 51 | 139 | 1.0 | 1.0 | 0.00 | 0.00 | 0.00 | 41 | 1004.2 |
| 20260509045803 | 51 | 135 | 0.0 | 0.0 | 0.00 | 0.00 | 0.00 | 42 | 1004.1 |
| 20260509045300 | 50 | 191 | 1.0 | 2.0 | 0.00 | 0.00 | 0.00 | 41 | 1004.2 |
| 20260509044757 | 49 | 192 | 2.0 | 3.0 | 0.00 | 0.00 | 0.00 | 43 | 1004.5 |
| 20260509044255 | 48 | 128 | 0.0 | 1.0 | 0.00 | 0.00 | 0.00 | 48 | 1004.3 |
| 20260509043751 | 47 | 127 | 0.0 | 0.0 | 0.00 | 0.00 | 0.00 | 51 | 1004.3 |
| 20260509043247 | 48 | 136 | 0.0 | 0.0 | 0.00 | 0.00 | 0.00 | 51 | 1004.4 |
| 20260509042743 | 47 | 134 | 0.0 | 0.0 | 0.00 | 0.00 | 0.00 | 51 | 1004.4 |
| 20260509042240 | 47 | 129 | 0.0 | 0.0 | 0.00 | 0.00 | 0.00 | 52 | 1004.4 |
| 20260509041737 | 47 | 129 | 0.0 | 0.0 | 0.00 | 0.00 | 0.00 | 50 | 1004.3 |
| 20260509041234 | 47 | 135 | 0.0 | 0.0 | 0.00 | 0.00 | 0.00 | 52 | 1004.3 |
| 20260509040732 | 47 | 132 | 0.0 | 0.0 | 0.00 | 0.00 | 0.00 | 53 | 1004.4 |
| 20260509040229 | 47 | 134 | 0.0 | 0.0 | 0.00 | 0.00 | 0.00 | 52 | 1004.6 |
| 20260509035725 | 47 | 131 | 0.0 | 0.0 | 0.00 | 0.00 | 0.00 | 51 | 1004.5 |
| 20260509035222 | 47 | 127 | 0.0 | 0.0 | 0.00 | 0.00 | 0.00 | 52 | 1004.7 |
| 20260509034719 | 47 | 129 | 0.0 | 0.0 | 0.00 | 0.00 | 0.00 | 52 | 1004.9 |
| 20260509034217 | 48 | 121 | 0.0 | 0.0 | 0.00 | 0.00 | 0.00 | 50 | 1004.8 |
| 20260509033714 | 48 | 132 | 0.0 | 0.0 | 0.00 | 0.00 | 0.00 | 52 | 1004.9 |
| 20260509033211 | 48 | 117 | 0.0 | 0.0 | 0.00 | 0.00 | 0.00 | 50 | 1004.8 |
| 20260509032708 | 48 | 125 | 0.0 | 0.0 | 0.00 | 0.00 | 0.00 | 49 | 1004.9 |
| 20260509032205 | 48 | 126 | 0.0 | 0.0 | 0.00 | 0.00 | 0.00 | 48 | 1004.8 |
| 20260509031703 | 49 | 117 | 0.0 | 0.0 | 0.00 | 0.00 | 0.00 | 49 | 1005.1 |
| 20260509031200 | 49 | 126 | 0.0 | 0.0 | 0.00 | 0.00 | 0.00 | 48 | 1004.9 |
| 20260509030658 | 49 | 117 | 0.0 | 0.0 | 0.00 | 0.00 | 0.00 | 47 | 1005.1 |
| 20260509030155 | 49 | 130 | 0.0 | 0.0 | 0.00 | 0.00 | 0.00 | 46 | 1005.2 |
| 20260509025651 | 49 | 125 | 0.0 | 0.0 | 0.00 | 0.00 | 0.00 | 44 | 1005.1 |
| 20260509025147 | 50 | 119 | 0.0 | 0.0 | 0.00 | 0.00 | 0.00 | 46 | 1005.3 |
| 20260509024642 | 50 | 126 | 0.0 | 0.0 | 0.00 | 0.00 | 0.00 | 48 | 1005.4 |
| 20260509024139 | 50 | 127 | 0.0 | 0.0 | 0.00 | 0.00 | 0.00 | 46 | 1005.4 |
| 20260509023637 | 50 | 130 | 0.0 | 0.0 | 0.00 | 0.00 | 0.00 | 46 | 1005.5 |
| 20260509023133 | 51 | 130 | 0.0 | 0.0 | 0.00 | 0.00 | 0.00 | 46 | 1005.4 |
| 20260509022629 | 50 | 127 | 0.0 | 0.0 | 0.00 | 0.00 | 0.00 | 45 | 1005.6 |
| 20260509022128 | 50 | 129 | 0.0 | 0.0 | 0.00 | 0.00 | 0.00 | 45 | 1005.4 |
| 20260509021624 | 51 | 125 | 0.0 | 0.0 | 0.00 | 0.00 | 0.00 | 45 | 1005.4 |
| 20260509021121 | 51 | 130 | 0.0 | 0.0 | 0.00 | 0.00 | 0.00 | 44 | 1005.4 |
| 20260509020620 | 51 | 126 | 0.0 | 0.0 | 0.00 | 0.00 | 0.00 | 46 | 1005.3 |
| 20260509020116 | 51 | 133 | 0.0 | 0.0 | 0.00 | 0.00 | 0.00 | 46 | 1005.4 |
| 20260509015615 | 51 | 133 | 0.0 | 0.0 | 0.00 | 0.00 | 0.00 | 43 | 1005.4 |
| 20260509015112 | 51 | 127 | 0.0 | 0.0 | 0.00 | 0.00 | 0.00 | 43 | 1005.2 |
| 20260509014608 | 52 | 128 | 0.0 | 0.0 | 0.00 | 0.00 | 0.00 | 43 | 1005.1 |
| 20260509014105 | 52 | 132 | 0.0 | 0.0 | 0.00 | 0.00 | 0.00 | 42 | 1005.3 |
| 20260509013602 | 53 | 133 | 0.0 | 0.0 | 0.00 | 0.00 | 0.00 | 41 | 1005.3 |
| 20260509013057 | 53 | 133 | 0.0 | 0.0 | 0.00 | 0.00 | 0.00 | 41 | 1005.3 |
| 20260509012555 | 53 | 129 | 0.0 | 0.0 | 0.00 | 0.00 | 0.00 | 40 | 1005.1 |
| 20260509012051 | 54 | 131 | 0.0 | 0.0 | 0.00 | 0.00 | 0.00 | 39 | 1005.2 |
| 20260509011549 | 54 | 132 | 0.0 | 0.0 | 0.00 | 0.00 | 0.00 | 38 | 1005.3 |
| 20260509011046 | 54 | 133 | 0.0 | 0.0 | 0.00 | 0.00 | 0.00 | 36 | 1005.1 |
| 20260509010544 | 55 | 129 | 0.0 | 0.0 | 0.00 | 0.00 | 0.00 | 37 | 1005.4 |
| 20260509010040 | 55 | 129 | 0.0 | 0.0 | 0.00 | 0.00 | 0.00 | 37 | 1005.2 |
| 20260509005538 | 56 | 129 | 0.0 | 0.0 | 0.00 | 0.00 | 0.00 | 35 | 1005.3 |
| 20260509005038 | 57 | 128 | 0.0 | 0.0 | 0.00 | 0.00 | 0.00 | 35 | 1005.1 |
| 20260509004536 | 58 | 129 | 0.0 | 0.0 | 0.00 | 0.00 | 0.00 | 33 | 1005.3 |
| 20260509004032 | 58 | 134 | 0.0 | 0.0 | 0.00 | 0.00 | 0.00 | 32 | 1005.3 |
| 20260509003531 | 59 | 137 | 0.0 | 0.0 | 0.00 | 0.00 | 0.00 | 31 | 1005.4 |
| 20260509003028 | 59 | 135 | 0.0 | 1.0 | 0.00 | 0.00 | 0.00 | 30 | 1005.2 |
| 20260509002525 | 59 | 188 | 0.0 | 0.0 | 0.00 | 0.00 | 0.00 | 29 | 1005.5 |
| 20260509002022 | 60 | 129 | 0.0 | 0.0 | 0.00 | 0.00 | 0.00 | 29 | 1005.2 |
| 20260509001520 | 60 | 155 | 0.0 | 1.0 | 0.00 | 0.00 | 0.00 | 30 | 1005.6 |
| 20260509001015 | 60 | 121 | 1.0 | 2.0 | 0.00 | 0.00 | 0.00 | 29 | 1005.4 |
| 20260509000514 | 60 | 215 | 1.0 | 2.0 | 0.00 | 0.00 | 0.00 | 28 | 1005.6 |
| 20260509000009 | 61 | 229 | 3.0 | 3.0 | 0.00 | 0.00 | 0.00 | 28 | 1005.5 |
| 20260508235508 | 61 | 187 | 1.0 | 1.0 | 0.00 | 0.00 | 0.00 | 29 | 1005.8 |
| 20260508235003 | 61 | 135 | 0.0 | 0.0 | 0.00 | 0.00 | 0.00 | 29 | 1005.7 |
| 20260508234501 | 61 | 138 | 0.0 | 0.0 | 0.00 | 0.00 | 0.00 | 29 | 1005.8 |
| 20260508233958 | 62 | 172 | 2.0 | 3.0 | 0.00 | 0.00 | 0.00 | 28 | 1005.8 |
| 20260508233458 | 62 | 258 | 4.0 | 5.0 | 0.00 | 0.00 | 0.00 | 27 | 1005.8 |
| 20260508232954 | 62 | 214 | 3.0 | 3.0 | 0.00 | 0.00 | 0.00 | 28 | 1005.8 |
| 20260508232451 | 62 | 234 | 4.0 | 5.0 | 0.00 | 0.00 | 0.00 | 28 | 1005.9 |
| 20260508231948 | 62 | 222 | 3.0 | 3.0 | 0.00 | 0.00 | 0.00 | 28 | 1005.7 |
| 20260508231445 | 62 | 24 | 1.0 | 1.0 | 0.00 | 0.00 | 0.00 | 28 | 1005.9 |
| 20260508230942 | 63 | 184 | 2.0 | 2.0 | 0.00 | 0.00 | 0.00 | 27 | 1005.8 |
| 20260508230439 | 63 | 126 | 0.0 | 1.0 | 0.00 | 0.00 | 0.00 | 28 | 1005.9 |
| 20260508225936 | 63 | 254 | 2.0 | 3.0 | 0.00 | 0.00 | 0.00 | 27 | 1005.9 |
| 20260508225433 | 64 | 163 | 1.0 | 2.0 | 0.00 | 0.00 | 0.00 | 28 | 1006.0 |
| 20260508224930 | 64 | 152 | 0.0 | 1.0 | 0.00 | 0.00 | 0.00 | 29 | 1005.9 |
| 20260508224428 | 64 | 233 | 3.0 | 5.0 | 0.00 | 0.00 | 0.00 | 27 | 1005.8 |
| 20260508223925 | 64 | 194 | 1.0 | 2.0 | 0.00 | 0.00 | 0.00 | 27 | 1005.9 |
| 20260508223423 | 65 | 252 | 3.0 | 5.0 | 0.00 | 0.00 | 0.00 | 26 | 1005.8 |
| 20260508222919 | 65 | 269 | 1.0 | 1.0 | 0.00 | 0.00 | 0.00 | 27 | 1005.8 |
| 20260508222417 | 65 | 166 | 1.0 | 2.0 | 0.00 | 0.00 | 0.00 | 27 | 1005.6 |
| 20260508221913 | 66 | 259 | 2.0 | 3.0 | 0.00 | 0.00 | 0.00 | 26 | 1006.0 |
| 20260508221409 | 65 | 203 | 1.0 | 2.0 | 0.00 | 0.00 | 0.00 | 28 | 1005.9 |
| 20260508220905 | 64 | 216 | 0.0 | 1.0 | 0.00 | 0.00 | 0.00 | 27 | 1005.9 |
| 20260508220402 | 64 | 175 | 0.0 | 1.0 | 0.00 | 0.00 | 0.00 | 28 | 1005.9 |
| 20260508215858 | 64 | 191 | 0.0 | 1.0 | 0.00 | 0.00 | 0.00 | 28 | 1006.0 |
| 20260508215355 | 65 | 182 | 1.0 | 1.0 | 0.00 | 0.00 | 0.00 | 26 | 1005.8 |
| 20260508214852 | 64 | 176 | 1.0 | 2.0 | 0.00 | 0.00 | 0.00 | 30 | 1005.8 |
| 20260508214350 | 65 | 205 | 1.0 | 2.0 | 0.00 | 0.00 | 0.00 | 28 | 1005.9 |
| 20260508213846 | 66 | 62 | 2.0 | 3.0 | 0.00 | 0.00 | 0.00 | 28 | 1006.0 |
| 20260508213343 | 66 | 233 | 0.0 | 1.0 | 0.00 | 0.00 | 0.00 | 27 | 1005.9 |
| 20260508212838 | 65 | 127 | 0.0 | 1.0 | 0.00 | 0.00 | 0.00 | 30 | 1006.2 |
| 20260508212336 | 64 | 297 | 3.0 | 3.0 | 0.00 | 0.00 | 0.00 | 28 | 1006.2 |
| 20260508211831 | 65 | 256 | 2.0 | 2.0 | 0.00 | 0.00 | 0.00 | 28 | 1006.2 |
| 20260508211327 | 66 | 235 | 2.0 | 2.0 | 0.00 | 0.00 | 0.00 | 26 | 1006.0 |
| 20260508210825 | 65 | 140 | 3.0 | 3.0 | 0.00 | 0.00 | 0.00 | 27 | 1006.0 |
| 20260508210321 | 65 | 201 | 1.0 | 1.0 | 0.00 | 0.00 | 0.00 | 28 | 1006.2 |
| 20260508205818 | 66 | 272 | 1.0 | 1.0 | 0.00 | 0.00 | 0.00 | 27 | 1006.3 |
| 20260508205315 | 66 | 353 | 4.0 | 5.0 | 0.00 | 0.00 | 0.00 | 27 | 1006.2 |
| 20260508204811 | 66 | 256 | 4.0 | 6.0 | 0.00 | 0.00 | 0.00 | 26 | 1006.5 |
| 20260508204308 | 66 | 202 | 1.0 | 1.0 | 0.00 | 0.00 | 0.00 | 26 | 1006.4 |
| 20260508203804 | 66 | 252 | 3.0 | 5.0 | 0.00 | 0.00 | 0.00 | 26 | 1006.4 |
| 20260508203300 | 66 | 185 | 2.0 | 2.0 | 0.00 | 0.00 | 0.00 | 29 | 1006.7 |
| 20260508202756 | 67 | 64 | 3.0 | 3.0 | 0.00 | 0.00 | 0.00 | 28 | 1006.7 |
| 20260508202254 | 67 | 251 | 1.0 | 1.0 | 0.00 | 0.00 | 0.00 | 27 | 1006.7 |
| 20260508201751 | 66 | 235 | 3.0 | 5.0 | 0.00 | 0.00 | 0.00 | 27 | 1006.8 |
| 20260508201247 | 66 | 167 | 2.0 | 2.0 | 0.00 | 0.00 | 0.00 | 27 | 1006.7 |
| 20260508200744 | 66 | 169 | 4.0 | 5.0 | 0.00 | 0.00 | 0.00 | 26 | 1006.7 |
| 20260508200240 | 67 | 208 | 1.0 | 2.0 | 0.00 | 0.00 | 0.00 | 27 | 1006.9 |
| 20260508195736 | 68 | 88 | 1.0 | 1.0 | 0.00 | 0.00 | 0.00 | 26 | 1006.8 |
| 20260508195233 | 67 | 179 | 3.0 | 5.0 | 0.00 | 0.00 | 0.00 | 25 | 1007.2 |
| 20260508194730 | 66 | 235 | 3.0 | 3.0 | 0.00 | 0.00 | 0.00 | 26 | 1007.2 |
| 20260508194226 | 67 | 203 | 3.0 | 5.0 | 0.00 | 0.00 | 0.00 | 25 | 1006.9 |
| 20260508193724 | 66 | 190 | 0.0 | 1.0 | 0.00 | 0.00 | 0.00 | 27 | 1007.0 |
| 20260508193220 | 65 | 130 | 1.0 | 2.0 | 0.00 | 0.00 | 0.00 | 27 | 1007.2 |
| 20260508192717 | 66 | 173 | 2.0 | 2.0 | 0.00 | 0.00 | 0.00 | 27 | 1007.3 |
| 20260508192214 | 66 | 142 | 0.0 | 0.0 | 0.00 | 0.00 | 0.00 | 25 | 1007.0 |
| 20260508191711 | 65 | 214 | 1.0 | 2.0 | 0.00 | 0.00 | 0.00 | 26 | 1007.3 |
| 20260508191208 | 66 | 170 | 4.0 | 6.0 | 0.00 | 0.00 | 0.00 | 25 | 1007.5 |
| 20260508190705 | 67 | 201 | 1.0 | 1.0 | 0.00 | 0.00 | 0.00 | 25 | 1007.3 |
| 20260508190201 | 66 | 182 | 1.0 | 2.0 | 0.00 | 0.00 | 0.00 | 28 | 1007.3 |
| 20260508185658 | 67 | 276 | 3.0 | 3.0 | 0.00 | 0.00 | 0.00 | 25 | 1007.3 |
| 20260508185155 | 67 | 157 | 3.0 | 7.0 | 0.00 | 0.00 | 0.00 | 26 | 1007.5 |
| 20260508184653 | 67 | 150 | 1.0 | 1.0 | 0.00 | 0.00 | 0.00 | 28 | 1007.4 |
| 20260508184150 | 67 | 180 | 1.0 | 1.0 | 0.00 | 0.00 | 0.00 | 27 | 1007.6 |
| 20260508183647 | 65 | 130 | 0.0 | 1.0 | 0.00 | 0.00 | 0.00 | 27 | 1007.5 |
| 20260508183142 | 65 | 171 | 5.0 | 8.0 | 0.00 | 0.00 | 0.00 | 27 | 1007.7 |
| 20260508182639 | 66 | 327 | 2.0 | 2.0 | 0.00 | 0.00 | 0.00 | 26 | 1007.7 |
| 20260508182135 | 67 | 286 | 1.0 | 1.0 | 0.00 | 0.00 | 0.00 | 25 | 1007.5 |
| 20260508181631 | 65 | 264 | 3.0 | 3.0 | 0.00 | 0.00 | 0.00 | 27 | 1007.9 |
| 20260508181129 | 65 | 134 | 2.0 | 2.0 | 0.00 | 0.00 | 0.00 | 28 | 1007.7 |
| 20260508180625 | 67 | 125 | 0.0 | 1.0 | 0.00 | 0.00 | 0.00 | 29 | 1007.8 |
| 20260508180122 | 66 | 235 | 2.0 | 2.0 | 0.00 | 0.00 | 0.00 | 29 | 1007.9 |
| 20260508175618 | 65 | 109 | 0.0 | 1.0 | 0.00 | 0.00 | 0.00 | 32 | 1007.9 |
| 20260508175115 | 66 | 160 | 2.0 | 2.0 | 0.00 | 0.00 | 0.00 | 29 | 1008.1 |
| 20260508174613 | 66 | 270 | 2.0 | 2.0 | 0.00 | 0.00 | 0.00 | 29 | 1008.2 |
| 20260508174110 | 65 | 158 | 1.0 | 2.0 | 0.00 | 0.00 | 0.00 | 30 | 1008.2 |
| 20260508173607 | 65 | 286 | 1.0 | 2.0 | 0.00 | 0.00 | 0.00 | 30 | 1008.3 |
| 20260508173102 | 66 | 246 | 3.0 | 5.0 | 0.00 | 0.00 | 0.00 | 29 | 1008.4 |
| 20260508172600 | 65 | 110 | 3.0 | 3.0 | 0.00 | 0.00 | 0.00 | 30 | 1008.4 |
| 20260508172056 | 64 | 141 | 0.0 | 1.0 | 0.00 | 0.00 | 0.00 | 30 | 1008.6 |
| 20260508171553 | 65 | 117 | 3.0 | 3.0 | 0.00 | 0.00 | 0.00 | 30 | 1008.8 |
| 20260508171049 | 64 | 232 | 2.0 | 2.0 | 0.00 | 0.00 | 0.00 | 31 | 1008.7 |
| 20260508170547 | 65 | 130 | 1.0 | 3.0 | 0.00 | 0.00 | 0.00 | 31 | 1008.7 |
| 20260508170044 | 64 | 180 | 2.0 | 2.0 | 0.00 | 0.00 | 0.00 | 30 | 1008.8 |
| 20260508165541 | 63 | 155 | 0.0 | 1.0 | 0.00 | 0.00 | 0.00 | 31 | 1009.1 |
| 20260508165038 | 64 | 167 | 1.0 | 2.0 | 0.00 | 0.00 | 0.00 | 29 | 1009.0 |
| 20260508164534 | 62 | 223 | 2.0 | 5.0 | 0.00 | 0.00 | 0.00 | 29 | 1009.2 |
| 20260508164031 | 63 | 93 | 1.0 | 2.0 | 0.00 | 0.00 | 0.00 | 30 | 1009.1 |
| 20260508163529 | 63 | 151 | 2.0 | 3.0 | 0.00 | 0.00 | 0.00 | 32 | 1009.3 |
| 20260508163025 | 63 | 224 | 2.0 | 2.0 | 0.00 | 0.00 | 0.00 | 32 | 1009.4 |
| 20260508162522 | 63 | 124 | 0.0 | 1.0 | 0.00 | 0.00 | 0.00 | 36 | 1009.5 |
| 20260508162020 | 62 | 146 | 1.0 | 1.0 | 0.00 | 0.00 | 0.00 | 34 | 1009.5 |
| 20260508161516 | 62 | 179 | 3.0 | 3.0 | 0.00 | 0.00 | 0.00 | 32 | 1009.4 |
| 20260508161013 | 64 | 124 | 2.0 | 2.0 | 0.00 | 0.00 | 0.00 | 33 | 1009.4 |
| 20260508160512 | 65 | 165 | 1.0 | 2.0 | 0.00 | 0.00 | 0.00 | 32 | 1009.5 |
| 20260508160008 | 64 | 134 | 1.0 | 2.0 | 0.00 | 0.00 | 0.00 | 32 | 1009.4 |
| 20260508155505 | 63 | 151 | 0.0 | 1.0 | 0.00 | 0.00 | 0.00 | 34 | 1009.4 |
| 20260508155002 | 62 | 198 | 1.0 | 2.0 | 0.00 | 0.00 | 0.00 | 35 | 1009.5 |
| 20260508154500 | 60 | 140 | 0.0 | 1.0 | 0.00 | 0.00 | 0.00 | 38 | 1009.4 |
| 20260508153956 | 61 | 202 | 2.0 | 3.0 | 0.00 | 0.00 | 0.00 | 36 | 1009.6 |
| 20260508153453 | 61 | 142 | 2.0 | 3.0 | 0.00 | 0.00 | 0.00 | 34 | 1009.6 |
| 20260508152949 | 61 | 178 | 2.0 | 2.0 | 0.00 | 0.00 | 0.00 | 36 | 1009.6 |
| 20260508152446 | 62 | 185 | 2.0 | 3.0 | 0.00 | 0.00 | 0.00 | 39 | 1009.5 |
| 20260508151942 | 60 | 147 | 2.0 | 2.0 | 0.00 | 0.00 | 0.00 | 41 | 1009.6 |
| 20260508151439 | 60 | 117 | 1.0 | 1.0 | 0.00 | 0.00 | 0.00 | 41 | 1009.5 |
| 20260508150935 | 60 | 211 | 3.0 | 3.0 | 0.00 | 0.00 | 0.00 | 39 | 1009.7 |
| 20260508150432 | 59 | 127 | 0.0 | 1.0 | 0.00 | 0.00 | 0.00 | 43 | 1009.9 |
| 20260508145928 | 60 | 288 | 4.0 | 7.0 | 0.00 | 0.00 | 0.00 | 41 | 1009.9 |
| 20260508145425 | 60 | 119 | 3.0 | 3.0 | 0.00 | 0.00 | 0.00 | 42 | 1009.9 |
| 20260508144921 | 60 | 139 | 2.0 | 2.0 | 0.00 | 0.00 | 0.00 | 41 | 1009.9 |
| 20260508144419 | 59 | 235 | 3.0 | 3.0 | 0.00 | 0.00 | 0.00 | 41 | 1009.8 |
| 20260508143917 | 60 | 148 | 0.0 | 1.0 | 0.00 | 0.00 | 0.00 | 44 | 1010.0 |
| 20260508143414 | 60 | 123 | 0.0 | 0.0 | 0.00 | 0.00 | 0.00 | 45 | 1009.8 |
| 20260508142910 | 59 | 169 | 1.0 | 2.0 | 0.00 | 0.00 | 0.00 | 45 | 1009.9 |
| 20260508142408 | 59 | 152 | 0.0 | 1.0 | 0.00 | 0.00 | 0.00 | 47 | 1010.0 |
| 20260508141904 | 59 | 128 | 0.0 | 1.0 | 0.00 | 0.00 | 0.00 | 46 | 1009.9 |
| 20260508141400 | 59 | 119 | 0.0 | 0.0 | 0.00 | 0.00 | 0.00 | 44 | 1010.3 |
| 20260508140858 | 58 | 258 | 1.0 | 2.0 | 0.00 | 0.00 | 0.00 | 48 | 1010.1 |
| 20260508140355 | 57 | 195 | 1.0 | 1.0 | 0.00 | 0.00 | 0.00 | 54 | 1010.1 |
| 20260508135851 | 55 | 131 | 0.0 | 0.0 | 0.00 | 0.00 | 0.00 | 55 | 1010.1 |
| 20260508135347 | 56 | 118 | 1.0 | 1.0 | 0.00 | 0.00 | 0.00 | 58 | 1010.1 |
| 20260508134844 | 55 | 148 | 0.0 | 0.0 | 0.00 | 0.00 | 0.00 | 59 | 1010.1 |
| 20260508134340 | 55 | 129 | 0.0 | 1.0 | 0.00 | 0.00 | 0.00 | 61 | 1010.1 |
| 20260508133837 | 54 | 181 | 0.0 | 1.0 | 0.00 | 0.00 | 0.00 | 61 | 1010.0 |
| 20260508133335 | 54 | 124 | 1.0 | 1.0 | 0.00 | 0.00 | 0.00 | 61 | 1010.2 |
| 20260508132832 | 53 | 122 | 1.0 | 2.0 | 0.00 | 0.00 | 0.00 | 64 | 1010.3 |
| 20260508132329 | 53 | 125 | 0.0 | 0.0 | 0.00 | 0.00 | 0.00 | 65 | 1010.4 |
| 20260508131826 | 52 | 149 | 0.0 | 0.0 | 0.00 | 0.00 | 0.00 | 67 | 1010.3 |
| 20260508131321 | 51 | 203 | 1.0 | 1.0 | 0.00 | 0.00 | 0.00 | 68 | 1010.1 |
| 20260508130819 | 51 | 139 | 1.0 | 1.0 | 0.00 | 0.00 | 0.00 | 69 | 1010.1 |
| 20260508130315 | 50 | 129 | 0.0 | 0.0 | 0.00 | 0.00 | 0.00 | 73 | 1010.4 |
| 20260508125811 | 49 | 111 | 1.0 | 1.0 | 0.00 | 0.00 | 0.00 | 73 | 1010.4 |
| 20260508125308 | 48 | 145 | 0.0 | 0.0 | 0.00 | 0.00 | 0.00 | 74 | 1010.4 |
| 20260508124806 | 47 | 132 | 0.0 | 0.0 | 0.00 | 0.00 | 0.00 | 76 | 1010.6 |
| 20260508124303 | 46 | 224 | 2.0 | 2.0 | 0.00 | 0.00 | 0.00 | 78 | 1010.6 |
| 20260508123801 | 45 | 128 | 0.0 | 0.0 | 0.00 | 0.00 | 0.00 | 80 | 1010.4 |
| 20260508123259 | 44 | 132 | 1.0 | 1.0 | 0.00 | 0.00 | 0.00 | 81 | 1010.6 |
| 20260508122755 | 43 | 131 | 0.0 | 0.0 | 0.00 | 0.00 | 0.00 | 84 | 1010.3 |
| 20260508122252 | 42 | 125 | 0.0 | 0.0 | 0.00 | 0.00 | 0.00 | 87 | 1010.3 |
| 20260508121749 | 41 | 130 | 0.0 | 0.0 | 0.00 | 0.00 | 0.00 | 89 | 1010.3 |
| 20260508121248 | 40 | 127 | 0.0 | 0.0 | 0.00 | 0.00 | 0.00 | 90 | 1010.1 |
| 20260508120744 | 39 | 131 | 0.0 | 0.0 | 0.00 | 0.00 | 0.00 | 91 | 1010.2 |
| 20260508120243 | 38 | 135 | 0.0 | 0.0 | 0.00 | 0.00 | 0.00 | 94 | 1010.1 |
| 20260508115740 | 37 | 131 | 0.0 | 0.0 | 0.00 | 0.00 | 0.00 | 95 | 1010.2 |
| 20260508115237 | 37 | 124 | 0.0 | 0.0 | 0.00 | 0.00 | 0.00 | 95 | 1010.2 |
| 20260508114733 | 36 | 124 | 0.0 | 0.0 | 0.00 | 0.00 | 0.00 | 96 | 1009.9 |
| 20260508114230 | 35 | 125 | 0.0 | 0.0 | 0.00 | 0.00 | 0.00 | 95 | 1010.0 |
| 20260508113727 | 35 | 127 | 0.0 | 0.0 | 0.00 | 0.00 | 0.00 | 95 | 1009.9 |
| 20260508113226 | 35 | 132 | 0.0 | 0.0 | 0.00 | 0.00 | 0.00 | 96 | 1009.9 |
| 20260508112721 | 34 | 132 | 0.0 | 0.0 | 0.00 | 0.00 | 0.00 | 96 | 1010.0 |
| 20260508112218 | 34 | 127 | 0.0 | 0.0 | 0.00 | 0.00 | 0.00 | 96 | 1010.0 |
| 20260508111715 | 33 | 126 | 0.0 | 0.0 | 0.00 | 0.00 | 0.00 | 95 | 1009.9 |
| 20260508111213 | 33 | 130 | 0.0 | 0.0 | 0.00 | 0.00 | 0.00 | 95 | 1009.9 |
| 20260508110710 | 33 | 131 | 0.0 | 0.0 | 0.00 | 0.00 | 0.00 | 95 | 1009.9 |
| 20260508110207 | 33 | 129 | 0.0 | 0.0 | 0.00 | 0.00 | 0.00 | 95 | 1010.0 |
| 20260508105706 | 33 | 132 | 0.0 | 0.0 | 0.00 | 0.00 | 0.00 | 95 | 1010.0 |
| 20260508105204 | 33 | 127 | 0.0 | 0.0 | 0.00 | 0.00 | 0.00 | 95 | 1009.7 |
| 20260508104701 | 33 | 127 | 0.0 | 0.0 | 0.00 | 0.00 | 0.00 | 95 | 1009.7 |
| 20260508104158 | 33 | 128 | 0.0 | 0.0 | 0.00 | 0.00 | 0.00 | 95 | 1009.5 |
| 20260508103655 | 34 | 128 | 0.0 | 0.0 | 0.00 | 0.00 | 0.00 | 95 | 1009.8 |
| 20260508103152 | 33 | 133 | 0.0 | 0.0 | 0.00 | 0.00 | 0.00 | 95 | 1009.6 |
| 20260508102649 | 34 | 126 | 0.0 | 0.0 | 0.00 | 0.00 | 0.00 | 94 | 1009.6 |
| 20260508102147 | 34 | 122 | 0.0 | 0.0 | 0.00 | 0.00 | 0.00 | 94 | 1009.7 |
| 20260508101644 | 34 | 97 | 0.0 | 0.0 | 0.00 | 0.00 | 0.00 | 94 | 1009.5 |
| 20260508101142 | 34 | 119 | 0.0 | 0.0 | 0.00 | 0.00 | 0.00 | 94 | 1009.8 |
| 20260508100639 | 34 | 124 | 0.0 | 0.0 | 0.00 | 0.00 | 0.00 | 93 | 1009.8 |
| 20260508100137 | 34 | 124 | 0.0 | 0.0 | 0.00 | 0.00 | 0.00 | 93 | 1009.6 |
| 20260508095633 | 34 | 125 | 0.0 | 0.0 | 0.00 | 0.00 | 0.00 | 93 | 1009.8 |
| 20260508095130 | 34 | 125 | 0.0 | 0.0 | 0.00 | 0.00 | 0.00 | 93 | 1009.7 |
| 20260508094627 | 34 | 117 | 0.0 | 0.0 | 0.00 | 0.00 | 0.00 | 93 | 1009.7 |
| 20260508094124 | 34 | 125 | 0.0 | 0.0 | 0.00 | 0.00 | 0.00 | 93 | 1009.7 |
| 20260508093621 | 35 | 126 | 0.0 | 0.0 | 0.00 | 0.00 | 0.00 | 92 | 1009.8 |
| 20260508093119 | 35 | 127 | 0.0 | 0.0 | 0.00 | 0.00 | 0.00 | 92 | 1009.9 |
| 20260508092616 | 35 | 130 | 0.0 | 0.0 | 0.00 | 0.00 | 0.00 | 93 | 1009.8 |
| 20260508092114 | 34 | 129 | 0.0 | 0.0 | 0.00 | 0.00 | 0.00 | 92 | 1010.2 |
| 20260508091611 | 35 | 127 | 0.0 | 0.0 | 0.00 | 0.00 | 0.00 | 92 | 1009.8 |
| 20260508091108 | 35 | 130 | 0.0 | 0.0 | 0.00 | 0.00 | 0.00 | 92 | 1009.9 |
| 20260508090606 | 35 | 131 | 0.0 | 0.0 | 0.00 | 0.00 | 0.00 | 92 | 1010.0 |
| 20260508090103 | 35 | 129 | 0.0 | 0.0 | 0.00 | 0.00 | 0.00 | 91 | 1010.0 |
| 20260508085559 | 35 | 129 | 0.0 | 0.0 | 0.00 | 0.00 | 0.00 | 91 | 1010.0 |
| 20260508085057 | 35 | 127 | 0.0 | 0.0 | 0.00 | 0.00 | 0.00 | 90 | 1009.9 |
| 20260508084553 | 36 | 126 | 0.0 | 0.0 | 0.00 | 0.00 | 0.00 | 90 | 1009.9 |
| 20260508084050 | 36 | 126 | 0.0 | 0.0 | 0.00 | 0.00 | 0.00 | 90 | 1009.9 |
| 20260508083547 | 36 | 126 | 0.0 | 0.0 | 0.00 | 0.00 | 0.00 | 90 | 1010.0 |
| 20260508083044 | 36 | 120 | 0.0 | 0.0 | 0.00 | 0.00 | 0.00 | 90 | 1009.8 |
| 20260508082540 | 36 | 125 | 0.0 | 0.0 | 0.00 | 0.00 | 0.00 | 90 | 1009.9 |
| 20260508082037 | 37 | 125 | 0.0 | 0.0 | 0.00 | 0.00 | 0.00 | 90 | 1010.1 |
| 20260508081535 | 37 | 125 | 0.0 | 0.0 | 0.00 | 0.00 | 0.00 | 90 | 1010.2 |
| 20260508081031 | 37 | 121 | 0.0 | 0.0 | 0.00 | 0.00 | 0.00 | 89 | 1010.2 |
| 20260508080529 | 37 | 112 | 0.0 | 0.0 | 0.00 | 0.00 | 0.00 | 89 | 1010.3 |
| 20260508080026 | 37 | 117 | 0.0 | 0.0 | 0.00 | 0.00 | 0.00 | 89 | 1010.1 |
| 20260508075522 | 37 | 123 | 0.0 | 0.0 | 0.00 | 0.00 | 0.00 | 88 | 1010.0 |
| 20260508075020 | 37 | 122 | 0.0 | 0.0 | 0.00 | 0.00 | 0.00 | 87 | 1010.0 |
| 20260508074518 | 37 | 112 | 0.0 | 0.0 | 0.00 | 0.00 | 0.00 | 87 | 1010.0 |
| 20260508074014 | 37 | 133 | 0.0 | 0.0 | 0.00 | 0.00 | 0.00 | 87 | 1010.0 |
| 20260508073511 | 37 | 133 | 0.0 | 0.0 | 0.00 | 0.00 | 0.00 | 87 | 1010.0 |
| 20260508073009 | 38 | 133 | 0.0 | 0.0 | 0.00 | 0.00 | 0.00 | 86 | 1010.1 |
| 20260508072504 | 38 | 129 | 0.0 | 0.0 | 0.00 | 0.00 | 0.00 | 87 | 1010.2 |
| 20260508072002 | 38 | 130 | 0.0 | 0.0 | 0.00 | 0.00 | 0.00 | 87 | 1010.3 |
| 20260508071500 | 37 | 125 | 0.0 | 0.0 | 0.00 | 0.00 | 0.00 | 87 | 1010.3 |
| 20260508070957 | 38 | 125 | 0.0 | 0.0 | 0.00 | 0.00 | 0.00 | 87 | 1010.3 |
| 20260508070455 | 38 | 125 | 0.0 | 0.0 | 0.00 | 0.00 | 0.00 | 86 | 1010.6 |
| 20260508065953 | 38 | 124 | 0.0 | 0.0 | 0.00 | 0.00 | 0.00 | 86 | 1010.3 |
| 20260508065450 | 38 | 135 | 0.0 | 0.0 | 0.00 | 0.00 | 0.00 | 86 | 1010.5 |
| 20260508064948 | 38 | 139 | 0.0 | 0.0 | 0.00 | 0.00 | 0.00 | 86 | 1010.5 |
| 20260508064446 | 38 | 134 | 0.0 | 0.0 | 0.00 | 0.00 | 0.00 | 86 | 1010.4 |
| 20260508063943 | 38 | 135 | 0.0 | 0.0 | 0.00 | 0.00 | 0.00 | 86 | 1010.3 |
| 20260508063440 | 38 | 135 | 0.0 | 0.0 | 0.00 | 0.00 | 0.00 | 85 | 1010.4 |
| 20260508062938 | 38 | 135 | 0.0 | 0.0 | 0.00 | 0.00 | 0.00 | 85 | 1010.6 |
| 20260508062436 | 38 | 134 | 0.0 | 0.0 | 0.00 | 0.00 | 0.00 | 85 | 1010.5 |
| 20260508061932 | 38 | 134 | 0.0 | 0.0 | 0.00 | 0.00 | 0.00 | 85 | 1010.7 |
| 20260508061430 | 38 | 132 | 0.0 | 0.0 | 0.00 | 0.00 | 0.00 | 84 | 1010.4 |
| 20260508060926 | 39 | 133 | 0.0 | 0.0 | 0.00 | 0.00 | 0.00 | 84 | 1010.5 |
| 20260508060424 | 39 | 125 | 0.0 | 0.0 | 0.00 | 0.00 | 0.00 | 83 | 1010.6 |
| 20260508055919 | 39 | 119 | 0.0 | 0.0 | 0.00 | 0.00 | 0.00 | 83 | 1010.6 |
| 20260508055416 | 39 | 133 | 0.0 | 0.0 | 0.00 | 0.00 | 0.00 | 82 | 1010.5 |
| 20260508054913 | 39 | 138 | 0.0 | 0.0 | 0.00 | 0.00 | 0.00 | 82 | 1010.7 |
| 20260508054410 | 40 | 124 | 0.0 | 0.0 | 0.00 | 0.00 | 0.00 | 82 | 1010.7 |
| 20260508053907 | 40 | 112 | 0.0 | 0.0 | 0.00 | 0.00 | 0.00 | 81 | 1011.0 |